Time;durP1;ratioP1;P1;durP2;ratioP2;P2;SDS_P1;SDS_P2;PMS_P1;PMS_P2;Temp;Humidity;BMP_temperature;BMP_pressure;BME280_temperature;BME280_humidity;BME280_pressure;Samples;Min_cycle;Max_cycle;Signal;HPM_P1;HPM_P2
2022/11/15 00:01:47;;;;;;;;;;;;;;;7.95;100.00;100742.31;6040112;23;19918;-50
2022/11/15 00:04:33;;;;;;;;;;;;;;;7.97;100.00;100734.75;6040022;23;20324;-52
2022/11/15 00:07:19;;;;;;;;;;;;;;;8.00;100.00;100717.94;6014294;23;19918;-51
2022/11/15 00:10:25;;;;;;;;;;;;;;;8.04;100.00;100726.41;6039942;23;19922;-50
2022/11/15 00:13:12;;;;;;;;;;;;;;;8.07;100.00;100715.06;6039409;23;19953;-50
2022/11/15 00:15:59;;;;;;;;;;;;;;;8.07;100.00;100724.00;6023381;23;19927;-50
2022/11/15 00:18:45;;;;;;;;;;;;;;;8.08;100.00;100728.38;6038233;23;19924;-50
2022/11/15 00:21:35;;;;;;;;;;;;;;;8.09;100.00;100727.28;6039901;23;19953;-50
2022/11/15 00:24:22;;;;;;;;;;;;;;;8.07;100.00;100732.16;6039692;23;19918;-50
2022/11/15 00:27:08;;;;;;;;;;;;;;;8.08;100.00;100724.81;6037442;23;19921;-50
2022/11/15 00:29:54;;;;;;;;;;;;;;;8.08;100.00;100724.81;6039094;23;20343;-50
2022/11/15 00:32:40;;;;;;;;;;;;;;;8.09;100.00;100721.88;6039959;23;19922;-50
2022/11/15 00:35:33;;;;;;;;;;;;;;;8.11;100.00;100717.00;6039900;23;20302;-52
2022/11/15 00:38:19;;;;;;;;;;;;;;;8.14;100.00;100714.84;6039665;23;20259;-50
2022/11/15 00:41:05;;;;;;;;;;;;;;;8.15;100.00;100711.06;6041743;23;20001;-51
2022/11/15 00:43:54;;;;;;;;;;;;;;;8.18;100.00;100710.53;6041023;23;19933;-49
2022/11/15 00:46:40;;;;;;;;;;;;;;;8.20;100.00;100711.09;6039993;23;19949;-50
2022/11/15 00:49:26;;;;;;;;;;;;;;;8.21;100.00;100710.06;6041242;23;19922;-50
2022/11/15 00:52:13;;;;;;;;;;;;;;;8.23;100.00;100706.00;6041327;23;20004;-48
2022/11/15 00:54:59;;;;;;;;;;;;;;;8.24;100.00;100706.81;6041193;23;19918;-46
2022/11/15 00:57:45;;;;;;;;;;;;;;;8.25;100.00;100703.03;6041049;23;19921;-48
2022/11/15 01:00:32;;;;;;;;;;;;;;;8.26;100.00;100704.69;6040717;23;19917;-49
2022/11/15 01:03:18;;;;;;;;;;;;;;;8.30;100.00;100697.66;6040264;23;19918;-49
2022/11/15 01:06:04;;;;;;;;;;;;;;;8.32;100.00;100704.47;6041618;23;20280;-48
2022/11/15 01:08:49;;;;;;;;;;;;;;;8.36;100.00;100698.53;6039334;23;19974;-51
2022/11/15 01:11:35;;;;;;;;;;;;;;;8.36;100.00;100693.09;6041623;23;19922;-50
2022/11/15 01:14:21;;;;;;;;;;;;;;;8.38;100.00;100699.09;6041399;23;19921;-51
2022/11/15 01:17:10;;;;;;;;;;;;;;;8.42;100.00;100694.81;6040498;23;19921;-50
2022/11/15 01:19:56;;;;;;;;;;;;;;;8.43;100.00;100689.13;6041611;23;19918;-49
2022/11/15 01:22:42;;;;;;;;;;;;;;;8.47;100.00;100684.03;6040920;23;19957;-47
2022/11/15 01:25:28;;;;;;;;;;;;;;;8.52;100.00;100684.06;6041410;23;19925;-47
2022/11/15 01:28:14;;;;;;;;;;;;;;;8.52;100.00;100682.16;6040153;23;19922;-48
2022/11/15 01:31:01;;;;;;;;;;;;;;;8.52;100.00;100674.00;6040777;23;19918;-48
2022/11/15 01:33:47;;;;;;;;;;;;;;;8.57;100.00;100672.44;6019711;23;19990;-50
2022/11/15 01:36:33;;;;;;;;;;;;;;;8.61;100.00;100668.09;6040952;23;19918;-51
2022/11/15 01:39:19;;;;;;;;;;;;;;;8.63;100.00;100671.38;6019496;23;19918;-49
2022/11/15 01:42:05;;;;;;;;;;;;;;;8.63;100.00;100663.22;6020166;23;19921;-48
2022/11/15 01:44:51;;;;;;;;;;;;;;;8.68;100.00;100657.84;6041314;23;19917;-50
2022/11/15 01:47:38;;;;;;;;;;;;;;;8.71;100.00;100660.88;6040824;23;20241;-50
2022/11/15 01:50:26;;;;;;;;;;;;;;;8.71;100.00;100660.88;6019136;23;19921;-50
2022/11/15 01:53:13;;;;;;;;;;;;;;;8.73;100.00;100666.03;6040818;23;20371;-49
2022/11/15 01:55:59;;;;;;;;;;;;;;;8.75;100.00;100663.88;6040901;23;20000;-51
2022/11/15 01:58:45;;;;;;;;;;;;;;;8.73;100.00;100656.00;6019550;23;19926;-53
2022/11/15 02:01:31;;;;;;;;;;;;;;;8.73;100.00;100661.44;6019995;23;20075;-49
2022/11/15 02:04:37;;;;;;;;;;;;;;;8.73;100.00;100663.31;6020138;23;20323;-49
2022/11/15 02:07:23;;;;;;;;;;;;;;;8.73;100.00;100664.16;6019207;23;20320;-50
2022/11/15 02:10:14;;;;;;;;;;;;;;;8.75;100.00;100661.16;6019315;23;19947;-49
2022/11/15 02:13:00;;;;;;;;;;;;;;;8.75;100.00;100655.72;6040786;23;19941;-51
2022/11/15 02:15:59;;;;;;;;;;;;;;;8.79;100.00;100654.13;6022040;23;19921;-50
2022/11/15 02:18:59;;;;;;;;;;;;;;;8.80;100.00;100647.59;6040747;23;19917;-50
2022/11/15 02:22:11;;;;;;;;;;;;;;;8.81;100.00;100645.72;6019525;23;19926;-51
2022/11/15 02:25:01;;;;;;;;;;;;;;;8.83;100.00;100635.44;6019330;23;19918;-51
2022/11/15 02:27:47;;;;;;;;;;;;;;;8.85;100.00;100634.09;6040928;23;19917;-50
2022/11/15 02:30:36;;;;;;;;;;;;;;;8.87;100.00;100640.06;6040437;23;19950;-50
2022/11/15 02:33:35;;;;;;;;;;;;;;;8.89;100.00;100635.19;6040242;23;19917;-50
2022/11/15 02:36:25;;;;;;;;;;;;;;;8.92;100.00;100631.13;6019783;23;19949;-51
2022/11/15 02:39:18;;;;;;;;;;;;;;;8.95;100.00;100638.78;6018813;23;20351;-52
2022/11/15 02:43:56;;;;;;;;;;;;;;;8.95;100.00;100636.88;6019637;23;19945;-50
2022/11/15 02:45:17;;;;;;;;;;;;;;;8.94;100.00;100629.78;6023120;23;19921;-51
2022/11/15 02:48:03;;;;;;;;;;;;;;;8.99;100.00;100630.91;6019466;23;19960;-51
2022/11/15 02:50:49;;;;;;;;;;;;;;;9.00;100.00;100625.22;6020172;23;19917;-51
2022/11/15 02:53:35;;;;;;;;;;;;;;;9.01;100.00;100617.88;6019305;23;19949;-52
2022/11/15 02:56:21;;;;;;;;;;;;;;;9.03;100.00;100623.88;6040016;23;19922;-51
2022/11/15 02:59:13;;;;;;;;;;;;;;;9.06;100.00;100621.44;6040575;23;20335;-50
2022/11/15 03:02:18;;;;;;;;;;;;;;;9.07;100.00;100616.84;6040629;23;19918;-51
2022/11/15 03:05:22;;;;;;;;;;;;;;;9.09;100.00;100614.66;6040524;23;19918;-48
2022/11/15 03:08:15;;;;;;;;;;;;;;;9.09;100.00;100610.06;6040221;23;20004;-48
2022/11/15 03:11:08;;;;;;;;;;;;;;;9.09;100.00;100611.94;6019665;23;19918;-48
2022/11/15 03:13:58;;;;;;;;;;;;;;;9.11;100.00;100612.50;6019423;23;19922;-50
2022/11/15 03:16:49;;;;;;;;;;;;;;;9.11;100.00;100609.78;6040132;23;19918;-49
2022/11/15 03:19:46;;;;;;;;;;;;;;;9.13;100.00;100604.88;6019242;23;19922;-49
2022/11/15 03:22:36;;;;;;;;;;;;;;;9.16;100.00;100607.91;6019096;23;19966;-50
2022/11/15 03:25:22;;;;;;;;;;;;;;;9.17;100.00;100611.44;6018992;23;19918;-49
2022/11/15 03:28:09;;;;;;;;;;;;;;;9.20;100.00;100604.66;6018640;23;19918;-50
2022/11/15 03:30:55;;;;;;;;;;;;;;;9.24;100.00;100611.22;6019161;23;20000;-49
2022/11/15 03:33:40;;;;;;;;;;;;;;;9.24;100.00;100611.22;6039819;23;19922;-50
2022/11/15 03:36:27;;;;;;;;;;;;;;;9.24;100.00;100612.03;6040327;23;20315;-51
2022/11/15 03:39:13;;;;;;;;;;;;;;;9.27;100.00;100608.78;6014320;23;19978;-50
2022/11/15 03:42:08;;;;;;;;;;;;;;;9.30;100.00;100610.16;6020562;23;19976;-52
2022/11/15 03:44:54;;;;;;;;;;;;;;;9.32;100.00;100619.66;6040071;23;19953;-49
2022/11/15 03:47:41;;;;;;;;;;;;;;;9.31;100.00;100617.25;6039920;23;19917;-52
2022/11/15 03:50:27;;;;;;;;;;;;;;;9.31;100.00;100611.78;6019106;23;20284;-49
2022/11/15 03:53:13;;;;;;;;;;;;;;;9.31;100.00;100618.03;6018922;23;19918;-52
2022/11/15 03:55:59;;;;;;;;;;;;;;;9.35;100.00;100613.69;6018811;23;19917;-51
2022/11/15 03:58:45;;;;;;;;;;;;;;;9.36;100.00;100620.78;6038032;23;19921;-48
2022/11/15 04:01:31;;;;;;;;;;;;;;;9.38;100.00;100618.63;6038132;23;19917;-52
2022/11/15 04:04:18;;;;;;;;;;;;;;;9.42;100.00;100607.22;6039210;23;19925;-50
2022/11/15 04:07:04;;;;;;;;;;;;;;;9.43;100.00;100606.13;6018393;23;19918;-51
2022/11/15 04:10:03;;;;;;;;;;;;;;;9.44;100.00;100599.59;6039568;23;20295;-52
2022/11/15 04:12:49;;;;;;;;;;;;;;;9.48;100.00;100614.31;6039564;23;19922;-49
2022/11/15 04:15:35;;;;;;;;;;;;;;;9.51;100.00;100605.63;6039765;23;20236;-48
2022/11/15 04:18:21;;;;;;;;;;;;;;;9.53;100.00;100609.72;6039461;23;19924;-49
2022/11/15 04:24:12;;;;;;;;;;;;;;;9.54;100.00;100607.81;6040030;23;20009;-50
2022/11/15 04:26:58;;;;;;;;;;;;;;;9.53;100.00;100604.25;6040142;23;19918;-50
2022/11/15 04:29:44;;;;;;;;;;;;;;;9.52;100.00;100601.81;6018059;23;19921;-49
2022/11/15 04:32:30;;;;;;;;;;;;;;;9.53;100.00;100608.91;6039309;23;20402;-51
2022/11/15 04:35:16;;;;;;;;;;;;;;;9.55;100.00;100606.72;6039601;23;19982;-48
2022/11/15 04:38:03;;;;;;;;;;;;;;;9.57;100.00;100604.53;6039839;23;20251;-48
2022/11/15 04:40:49;;;;;;;;;;;;;;;9.59;100.00;100613.25;6018130;23;19993;-49
2022/11/15 04:43:35;;;;;;;;;;;;;;;9.60;100.00;100604.03;6014164;23;19973;-48
2022/11/15 04:46:21;;;;;;;;;;;;;;;9.58;100.00;100606.19;6039897;23;20325;-50
2022/11/15 04:49:07;;;;;;;;;;;;;;;9.58;100.00;100611.63;6039634;23;20335;-52
2022/11/15 04:51:54;;;;;;;;;;;;;;;9.57;100.00;100608.09;6039607;23;19918;-52
2022/11/15 04:54:41;;;;;;;;;;;;;;;9.58;100.00;100612.44;6039009;23;20004;-51
2022/11/15 04:57:27;;;;;;;;;;;;;;;9.58;100.00;100612.44;6039693;23;19926;-52
2022/11/15 05:00:14;;;;;;;;;;;;;;;9.58;100.00;100611.63;6039497;23;19918;-51
2022/11/15 05:06:05;;;;;;;;;;;;;;;9.63;100.00;100608.91;6038509;23;19918;-50
2022/11/15 05:08:51;;;;;;;;;;;;;;;9.65;100.00;100601.31;6018674;23;19918;-52
2022/11/15 05:11:37;;;;;;;;;;;;;;;9.66;100.00;100602.94;6038733;23;20339;-53
2022/11/15 05:14:23;;;;;;;;;;;;;;;9.65;100.00;100593.16;6039323;23;19918;-52
2022/11/15 05:17:09;;;;;;;;;;;;;;;9.64;100.00;100599.66;6039827;23;19918;-50
2022/11/15 05:19:55;;;;;;;;;;;;;;;9.65;100.00;100600.50;6039489;23;20594;-50
2022/11/15 05:22:41;;;;;;;;;;;;;;;9.63;100.00;100600.75;6039593;23;19918;-51
2022/11/15 05:25:27;;;;;;;;;;;;;;;9.63;100.00;100600.75;6040941;23;19922;-52
2022/11/15 05:28:14;;;;;;;;;;;;;;;9.65;100.00;100600.50;6041215;23;19925;-53
2022/11/15 05:31:01;;;;;;;;;;;;;;;9.64;100.00;100596.94;6041540;23;19918;-51
2022/11/15 05:33:48;;;;;;;;;;;;;;;9.65;100.00;100593.16;6040753;23;19938;-51
2022/11/15 05:36:45;;;;;;;;;;;;;;;9.67;100.00;100593.72;6020194;23;20016;-49
2022/11/15 05:39:31;;;;;;;;;;;;;;;9.65;100.00;100595.88;6041110;23;19918;-50
2022/11/15 05:42:17;;;;;;;;;;;;;;;9.65;100.00;100595.88;6041432;23;19980;-49
2022/11/15 05:45:04;;;;;;;;;;;;;;;9.66;100.00;100592.06;6041214;23;19917;-50
2022/11/15 05:47:50;;;;;;;;;;;;;;;9.67;100.00;100588.28;6020113;23;19918;-49
2022/11/15 05:50:36;;;;;;;;;;;;;;;9.70;100.00;100589.63;6040753;23;19949;-54
2022/11/15 05:53:22;;;;;;;;;;;;;;;9.70;100.00;100587.72;5997829;23;19922;-50
2022/11/15 05:56:08;;;;;;;;;;;;;;;9.70;100.00;100592.34;6036734;23;19925;-53
2022/11/15 05:58:54;;;;;;;;;;;;;;;9.72;100.00;100599.16;6036960;23;20343;-51
2022/11/15 06:01:44;;;;;;;;;;;;;;;9.73;100.00;100603.50;5992612;23;19921;-53
2022/11/15 06:04:31;;;;;;;;;;;;;;;9.76;100.00;100602.16;6035368;23;19922;-47
2022/11/15 06:07:17;;;;;;;;;;;;;;;9.76;100.00;100608.41;6036575;23;20337;-49
2022/11/15 06:10:03;;;;;;;;;;;;;;;9.73;100.00;100597.25;6037369;23;19922;-49
2022/11/15 06:12:56;;;;;;;;;;;;;;;9.72;100.00;100604.59;6036888;23;19922;-48
2022/11/15 06:15:42;;;;;;;;;;;;;;;9.72;100.00;100593.72;6036068;23;20201;-49
2022/11/15 06:18:31;;;;;;;;;;;;;;;9.72;100.00;100595.63;6036332;23;19949;-50
2022/11/15 06:21:17;;;;;;;;;;;;;;;9.74;100.00;100591.56;6036975;23;19922;-53
2022/11/15 06:24:03;;;;;;;;;;;;;;;9.76;100.00;100605.69;6036602;23;19941;-51
2022/11/15 06:26:49;;;;;;;;;;;;;;;9.78;100.00;100597.25;6037149;23;20551;-49
2022/11/15 06:29:35;;;;;;;;;;;;;;;9.79;100.00;100607.88;6036330;23;19918;-51
2022/11/15 06:32:21;;;;;;;;;;;;;;;9.79;100.00;100607.88;6036349;23;19918;-51
2022/11/15 06:35:07;;;;;;;;;;;;;;;9.80;100.00;100617.69;6036611;23;19926;-51
2022/11/15 06:37:53;;;;;;;;;;;;;;;9.81;100.00;100619.31;6037018;23;19997;-50
2022/11/15 06:40:39;;;;;;;;;;;;;;;9.88;100.00;100623.69;6036574;23;20001;-48
2022/11/15 06:43:25;;;;;;;;;;;;;;;9.88;100.00;100621.78;6010827;23;19929;-50
2022/11/15 06:46:11;;;;;;;;;;;;;;;9.92;100.00;100619.34;6036845;23;20254;-52
2022/11/15 06:48:58;;;;;;;;;;;;;;;9.97;100.00;100624.81;6036913;23;20254;-53
2022/11/15 06:51:44;;;;;;;;;;;;;;;9.99;100.00;100638.97;6036806;23;19921;-50
2022/11/15 06:54:30;;;;;;;;;;;;;;;9.94;100.00;100642.47;6036007;23;19921;-50
2022/11/15 06:57:16;;;;;;;;;;;;;;;9.91;100.00;100642.19;6011567;23;20351;-52
2022/11/15 07:00:05;;;;;;;;;;;;;;;9.91;100.00;100647.63;6036488;23;20707;-53
2022/11/15 07:02:51;;;;;;;;;;;;;;;9.90;100.00;100649.53;6017416;23;19953;-52
2022/11/15 07:05:37;;;;;;;;;;;;;;;9.89;100.00;100641.66;6019277;23;19940;-50
2022/11/15 07:08:23;;;;;;;;;;;;;;;9.87;100.00;100646.56;6039925;23;19918;-52
2022/11/15 07:11:09;;;;;;;;;;;;;;;9.86;100.00;100640.31;6040020;23;19918;-54
2022/11/15 07:13:55;;;;;;;;;;;;;;;9.89;100.00;100641.66;6019233;23;19921;-51
2022/11/15 07:16:41;;;;;;;;;;;;;;;9.91;100.00;100642.19;6039617;23;20004;-50
2022/11/15 07:19:27;;;;;;;;;;;;;;;9.93;100.00;100640.03;6040080;23;20331;-48
2022/11/15 07:22:13;;;;;;;;;;;;;;;9.94;100.00;100630.78;6040064;23;19918;-49
2022/11/15 07:24:59;;;;;;;;;;;;;;;9.95;100.00;100637.84;6018935;23;19952;-51
2022/11/15 07:27:53;;;;;;;;;;;;;;;9.94;100.00;100644.41;6040205;23;19917;-50
2022/11/15 07:30:39;;;;;;;;;;;;;;;9.93;100.00;100650.91;6019097;23;20000;-51
2022/11/15 07:33:30;;;;;;;;;;;;;;;9.93;100.00;100651.75;6040462;23;20276;-51
2022/11/15 07:36:17;;;;;;;;;;;;;;;9.93;100.00;100650.91;6019499;23;19924;-50
2022/11/15 07:39:03;;;;;;;;;;;;;;;9.93;100.00;100650.91;6040276;23;19918;-50
2022/11/15 07:42:52;;;;;;;;;;;;;;;9.93;100.00;100649.03;6039741;23;19918;-51
2022/11/15 07:44:55;;;;;;;;;;;;;;;9.94;100.00;100650.66;6039933;23;19926;-49
2022/11/15 07:47:44;;;;;;;;;;;;;;;9.97;100.00;100646.56;6040300;23;19922;-51
2022/11/15 07:50:30;;;;;;;;;;;;;;;9.97;100.00;100652.00;6019263;23;20247;-53
2022/11/15 07:53:16;;;;;;;;;;;;;;;9.99;100.00;100644.41;6039703;23;19918;-52
2022/11/15 07:56:05;;;;;;;;;;;;;;;10.00;100.00;100646.03;6040297;23;20001;-52
2022/11/15 07:58:51;;;;;;;;;;;;;;;10.00;100.00;100640.59;6039929;23;19929;-52
2022/11/15 08:01:38;;;;;;;;;;;;;;;10.04;100.00;100630.81;6039941;23;19933;-51
2022/11/15 08:04:24;;;;;;;;;;;;;;;10.02;100.00;100632.97;6039985;23;19949;-51
2022/11/15 08:07:10;;;;;;;;;;;;;;;10.01;100.00;100639.50;6039753;23;19918;-51
2022/11/15 08:09:56;;;;;;;;;;;;;;;10.00;100.00;100637.88;6039958;23;19918;-52
2022/11/15 08:12:42;;;;;;;;;;;;;;;10.04;100.00;100641.69;6039685;23;19917;-51
2022/11/15 08:15:28;;;;;;;;;;;;;;;10.04;100.00;100638.97;6039732;23;20340;-54
2022/11/15 08:18:15;;;;;;;;;;;;;;;10.03;100.00;100650.97;6037359;23;19918;-53
2022/11/15 08:21:01;;;;;;;;;;;;;;;10.07;100.00;100656.66;6018671;23;20327;-53
2022/11/15 08:23:47;;;;;;;;;;;;;;;10.09;100.00;100654.50;6039854;23;19922;-52
2022/11/15 08:26:32;;;;;;;;;;;;;;;10.09;100.00;100652.59;6039854;23;19917;-51
2022/11/15 08:29:19;;;;;;;;;;;;;;;10.12;100.00;100649.31;6039824;23;19949;-49
2022/11/15 08:32:05;;;;;;;;;;;;;;;10.13;100.00;100650.16;6039398;23;19946;-54
2022/11/15 08:34:51;;;;;;;;;;;;;;;10.12;100.00;100654.75;6040666;23;20258;-54
2022/11/15 08:37:37;;;;;;;;;;;;;;;10.17;100.00;100654.81;6043660;23;19945;-56
2022/11/15 08:40:23;;;;;;;;;;;;;;;10.20;100.00;100650.72;6043684;23;19918;-51
2022/11/15 08:43:09;;;;;;;;;;;;;;;10.21;100.00;100647.72;6043037;23;19926;-50
2022/11/15 08:45:56;;;;;;;;;;;;;;;10.26;100.00;100646.09;6045525;23;19917;-54
2022/11/15 08:48:42;;;;;;;;;;;;;;;10.24;100.00;100641.72;5996613;23;20251;-50
2022/11/15 08:51:28;;;;;;;;;;;;;;;10.29;100.00;100642.84;6040045;23;20006;-52
2022/11/15 08:54:14;;;;;;;;;;;;;;;10.34;100.00;100637.41;6039950;23;20216;-51
2022/11/15 08:57:00;;;;;;;;;;;;;;;10.39;100.00;100631.97;6040207;23;19917;-50
2022/11/15 08:59:46;;;;;;;;;;;;;;;10.42;100.00;100626.00;6052021;23;19918;-51
2022/11/15 09:02:33;;;;;;;;;;;;;;;10.40;100.00;100620.00;6053564;23;19989;-50
2022/11/15 09:05:19;;;;;;;;;;;;;;;10.36;100.00;100610.72;6052551;23;19922;-50
2022/11/15 09:08:05;;;;;;;;;;;;;;;10.40;100.00;100609.91;6020417;23;19977;-50
2022/11/15 09:11:12;;;;;;;;;;;;;;;10.31;100.00;100611.53;6041842;23;19918;-51
2022/11/15 09:13:58;;;;;;;;;;;;;;;10.28;100.00;100614.81;6041659;23;19917;-52
2022/11/15 09:16:44;;;;;;;;;;;;;;;10.30;100.00;100625.44;6041238;23;19918;-51
2022/11/15 09:19:30;;;;;;;;;;;;;;;10.26;100.00;100616.13;6041794;23;20336;-50
2022/11/15 09:22:16;;;;;;;;;;;;;;;10.27;100.00;100606.88;6041431;23;19922;-51
2022/11/15 09:25:03;;;;;;;;;;;;;;;10.27;100.00;100615.03;6041331;23;20331;-52
2022/11/15 09:27:55;;;;;;;;;;;;;;;10.35;100.00;100598.22;6041537;23;19917;-51
2022/11/15 09:30:41;;;;;;;;;;;;;;;10.29;100.00;100591.91;6020092;23;19946;-53
2022/11/15 09:33:27;;;;;;;;;;;;;;;10.32;100.00;100587.84;6020759;23;19918;-54
2022/11/15 09:36:12;;;;;;;;;;;;;;;10.34;100.00;100574.78;6041690;23;19918;-51
2022/11/15 09:38:59;;;;;;;;;;;;;;;10.34;100.00;100581.06;6041143;23;19929;-52
2022/11/15 09:41:51;;;;;;;;;;;;;;;10.39;100.00;100582.94;6041199;23;19918;-51
2022/11/15 09:44:43;;;;;;;;;;;;;;;10.46;100.00;100594.38;6019937;23;20328;-51
2022/11/15 09:47:35;;;;;;;;;;;;;;;10.63;100.00;100583.19;6041390;23;19929;-50
2022/11/15 09:50:34;;;;;;;;;;;;;;;10.73;100.00;100582.38;6041228;23;20387;-52
2022/11/15 09:53:01;;;;;;;;;;;;;;;10.75;100.00;100585.63;6016364;23;19918;-52
2022/11/15 09:55:34;;;;;;;;;;;;;;;10.74;100.00;100579.38;6040745;23;19977;-52
2022/11/15 09:58:09;;;;;;;;;;;;;;;10.82;100.00;100578.00;6016343;23;19969;-50
2022/11/15 10:00:38;;;;;;;;;;;;;;;10.83;100.00;100576.91;6016091;23;19922;-52
2022/11/15 10:03:29;;;;;;;;;;;;;;;10.65;100.00;100572.84;5993798;23;20350;-51
2022/11/15 10:05:58;;;;;;;;;;;;;;;10.59;100.00;100573.94;6016229;23;19969;-50
2022/11/15 10:08:28;;;;;;;;;;;;;;;10.76;100.00;100571.75;6015957;23;19977;-52
2022/11/15 10:11:15;;;;;;;;;;;;;;;10.71;100.00;100569.03;6040342;23;19918;-52
2022/11/15 10:14:05;;;;;;;;;;;;;;;10.72;100.00;100570.66;6040691;23;19952;-51
2022/11/15 10:16:35;;;;;;;;;;;;;;;10.66;100.00;100569.84;6016282;23;19918;-52
2022/11/15 10:19:21;;;;;;;;;;;;;;;10.71;100.00;100557.31;6040655;23;19918;-51
2022/11/15 10:21:53;;;;;;;;;;;;;;;10.62;100.00;100557.06;6040669;23;19922;-52
2022/11/15 10:24:24;;;;;;;;;;;;;;;10.58;100.00;100559.53;6040557;23;19969;-51
2022/11/15 10:26:52;;;;;;;;;;;;;;;10.58;100.00;100554.06;6039134;23;19918;-51
2022/11/15 10:29:20;;;;;;;;;;;;;;;10.60;100.00;100549.13;6040601;23;19922;-52
2022/11/15 10:31:53;;;;;;;;;;;;;;;10.59;100.00;100542.06;6039157;23;19918;-53
2022/11/15 10:34:22;;;;;;;;;;;;;;;10.61;100.00;100537.16;6039663;23;19917;-52
2022/11/15 10:36:56;;;;;;;;;;;;;;;10.72;100.00;100546.13;6040407;23;19922;-50
2022/11/15 10:39:23;;;;;;;;;;;;;;;11.00;100.00;100541.16;6040394;23;19918;-51
2022/11/15 10:41:51;;;;;;;;;;;;;;;11.15;100.00;100529.38;6040593;23;19928;-51
2022/11/15 10:44:31;;;;;;;;;;;;;;;11.23;100.00;100526.06;6040870;23;19974;-51
2022/11/15 10:46:58;;;;;;;;;;;;;;;11.13;100.00;100529.66;6039344;23;19918;-50
2022/11/15 10:49:29;;;;;;;;;;;;;;;11.18;100.00;100517.91;6040316;23;19921;-53
2022/11/15 10:51:58;;;;;;;;;;;;;;;11.23;100.00;100515.16;6039127;23;19973;-52
2022/11/15 10:54:25;;;;;;;;;;;;;;;11.26;100.00;100520.06;6038873;23;19921;-53
2022/11/15 10:56:53;;;;;;;;;;;;;;;11.14;100.00;100525.03;6040664;23;20228;-51
2022/11/15 10:59:29;;;;;;;;;;;;;;;11.07;100.00;100511.69;6038815;23;19973;-52
2022/11/15 11:02:02;;;;;;;;;;;;;;;11.03;100.00;100516.88;6039545;23;20299;-52
2022/11/15 11:04:30;;;;;;;;;;;;;;;11.31;100.00;100511.84;6039044;23;20299;-51
2022/11/15 11:06:58;;;;;;;;;;;;;;;11.24;100.00;100505.91;6038923;23;19918;-51
2022/11/15 11:09:32;;;;;;;;;;;;;;;11.39;100.00;100505.81;6015785;23;20024;-52
2022/11/15 11:12:00;;;;;;;;;;;;;;;11.47;100.00;100498.94;6040139;23;19924;-51
2022/11/15 11:14:30;;;;;;;;;;;;;;;11.44;100.00;100499.50;6040134;23;20344;-54
2022/11/15 11:17:03;;;;;;;;;;;;;;;11.41;100.00;100494.63;6038876;23;19925;-51
2022/11/15 11:19:33;;;;;;;;;;;;;;;11.20;100.00;100491.19;6038653;23;19973;-50
2022/11/15 11:22:06;;;;;;;;;;;;;;;11.18;100.00;100487.91;6038695;23;20002;-52
2022/11/15 11:24:39;;;;;;;;;;;;;;;11.39;100.00;100492.16;6015054;23;19917;-50
2022/11/15 11:27:25;;;;;;;;;;;;;;;11.42;100.00;100490.78;6038897;23;19974;-52
2022/11/15 11:30:11;;;;;;;;;;;;;;;11.18;100.00;100486.00;6040758;23;19950;-53
2022/11/15 11:32:44;;;;;;;;;;;;;;;11.08;100.00;100480.59;6040261;23;19918;-52
2022/11/15 11:35:13;;;;;;;;;;;;;;;10.95;100.00;100471.13;6040133;23;19921;-52
2022/11/15 11:37:50;;;;;;;;;;;;;;;10.94;100.00;100472.19;6038521;23;19954;-52
2022/11/15 11:40:30;;;;;;;;;;;;;;;10.96;100.00;100467.28;6040009;23;19918;-51
2022/11/15 11:43:17;;;;;;;;;;;;;;;10.92;100.00;100455.34;6040434;23;19966;-51
2022/11/15 11:45:45;;;;;;;;;;;;;;;10.86;100.00;100451.78;6039904;23;20320;-51
2022/11/15 11:48:15;;;;;;;;;;;;;;;10.83;100.00;100440.66;6040014;23;19921;-49
2022/11/15 11:50:42;;;;;;;;;;;;;;;10.84;100.00;100443.06;6038600;23;19918;-49
2022/11/15 11:53:12;;;;;;;;;;;;;;;10.81;100.00;100434.66;6038521;23;19928;-53
2022/11/15 11:55:46;;;;;;;;;;;;;;;10.79;100.00;100423.22;6039472;23;20343;-52
2022/11/15 11:58:15;;;;;;;;;;;;;;;10.79;100.00;100425.94;6039759;23;19922;-51
2022/11/15 12:00:46;;;;;;;;;;;;;;;10.83;100.00;100425.09;6039827;23;20350;-54
2022/11/15 12:03:16;;;;;;;;;;;;;;;10.82;100.00;100422.66;6038456;23;19917;-52
2022/11/15 12:05:44;;;;;;;;;;;;;;;10.85;100.00;100422.09;6039847;23;19918;-49
2022/11/15 12:08:21;;;;;;;;;;;;;;;10.86;100.00;100419.09;6038722;23;19918;-52
2022/11/15 12:10:50;;;;;;;;;;;;;;;10.89;100.00;100412.25;6038334;23;20262;-52
2022/11/15 12:13:19;;;;;;;;;;;;;;;10.89;100.00;100406.81;6038138;23;19973;-54
2022/11/15 12:16:07;;;;;;;;;;;;;;;10.91;100.00;100399.16;6038301;23;19974;-52
2022/11/15 12:18:37;;;;;;;;;;;;;;;10.93;100.00;100393.44;5998004;23;19925;-53
2022/11/15 12:21:14;;;;;;;;;;;;;;;10.94;100.00;100384.97;5987073;23;19925;-51
2022/11/15 12:24:05;;;;;;;;;;;;;;;10.96;100.00;100380.06;5986921;23;19929;-53
2022/11/15 12:26:46;;;;;;;;;;;;;;;10.97;100.00;100373.53;6000705;23;20281;-52
2022/11/15 12:29:24;;;;;;;;;;;;;;;11.02;100.00;100367.22;5963362;23;19922;-51
2022/11/15 12:31:52;;;;;;;;;;;;;;;11.04;99.24;100374.03;6011014;23;20355;-50
2022/11/15 12:34:20;;;;;;;;;;;;;;;11.05;99.52;100372.09;5986561;23;19922;-50
2022/11/15 12:36:48;;;;;;;;;;;;;;;11.07;98.46;100368.00;6011430;23;19961;-52
2022/11/15 12:39:15;;;;;;;;;;;;;;;11.11;99.49;100359.25;5986249;23;20395;-53
2022/11/15 12:42:03;;;;;;;;;;;;;;;11.13;99.68;100363.31;6011219;23;19918;-52
2022/11/15 12:44:30;;;;;;;;;;;;;;;11.16;99.40;100356.47;5968318;23;19982;-51
2022/11/15 12:47:00;;;;;;;;;;;;;;;11.15;99.32;100349.41;6011422;23;20296;-50
2022/11/15 12:49:27;;;;;;;;;;;;;;;11.15;97.11;100341.22;6011487;23;19919;-52
2022/11/15 12:51:58;;;;;;;;;;;;;;;11.15;97.45;100346.69;6011201;23;19925;-52
2022/11/15 12:54:27;;;;;;;;;;;;;;;11.14;97.49;100326.00;5986445;23;19986;-49
2022/11/15 12:57:03;;;;;;;;;;;;;;;11.13;96.75;100316.97;6010978;23;19918;-55
2022/11/15 12:59:49;;;;;;;;;;;;;;;11.14;96.85;100321.34;6011663;23;20272;-51
2022/11/15 13:02:20;;;;;;;;;;;;;;;11.14;96.98;100323.25;6011052;23;20336;-53
2022/11/15 13:04:48;;;;;;;;;;;;;;;11.14;96.78;100310.44;6011420;23;20359;-53
2022/11/15 13:07:34;;;;;;;;;;;;;;;11.13;97.58;100319.69;5963460;23;19974;-52
2022/11/15 13:10:22;;;;;;;;;;;;;;;11.13;98.38;100307.97;6010889;23;19922;-51
2022/11/15 13:13:01;;;;;;;;;;;;;;;11.11;96.46;100310.97;5999484;23;19918;-50
2022/11/15 13:15:47;;;;;;;;;;;;;;;11.11;98.21;100305.53;5986677;23;19919;-53
2022/11/15 13:18:38;;;;;;;;;;;;;;;11.11;96.79;100300.06;6036259;23;19918;-53
2022/11/15 13:24:05;;;;;;;;;;;;;;;11.13;95.72;100291.63;6039323;23;19918;-51
2022/11/15 13:26:32;;;;;;;;;;;;;;;11.12;95.56;100284.56;6014320;23;19924;-52
2022/11/15 13:29:00;;;;;;;;;;;;;;;11.11;93.42;100277.44;6014172;23;20336;-50
2022/11/15 13:31:28;;;;;;;;;;;;;;;11.13;93.65;100264.34;5991768;23;19918;-50
2022/11/15 13:33:59;;;;;;;;;;;;;;;11.14;94.09;100268.72;6039667;23;19985;-52
2022/11/15 13:36:29;;;;;;;;;;;;;;;11.13;93.90;100264.34;6014774;23;19918;-50
2022/11/15 13:39:12;;;;;;;;;;;;;;;11.13;93.28;100264.34;6014487;23;19925;-52
2022/11/15 13:41:49;;;;;;;;;;;;;;;11.13;94.04;100259.72;6039585;23;19926;-50
2022/11/15 13:44:21;;;;;;;;;;;;;;;11.13;93.94;100258.91;6015447;23;19917;-53
2022/11/15 13:46:48;;;;;;;;;;;;;;;11.13;92.20;100248.00;6041007;23;20339;-51
2022/11/15 13:49:16;;;;;;;;;;;;;;;11.15;92.72;100243.06;6040909;23;20403;-51
2022/11/15 13:51:43;;;;;;;;;;;;;;;11.16;91.52;100242.81;6040974;23;19918;-52
2022/11/15 13:54:17;;;;;;;;;;;;;;;11.18;91.92;100239.78;6040896;23;19922;-50
2022/11/15 13:57:03;;;;;;;;;;;;;;;11.17;91.62;100235.44;6041093;23;20063;-52
2022/11/15 13:59:35;;;;;;;;;;;;;;;11.18;92.73;100231.59;6016322;23;19918;-50
2022/11/15 14:02:03;;;;;;;;;;;;;;;11.18;93.74;100228.88;6016630;23;19921;-51
2022/11/15 14:04:33;;;;;;;;;;;;;;;11.17;93.13;100224.53;6016182;23;20335;-51